Time;durP1;ratioP1;P1;durP2;ratioP2;P2;SDS_P1;SDS_P2;PMS_P1;PMS_P2;Temp;Humidity;BMP_temperature;BMP_pressure;BME280_temperature;BME280_humidity;BME280_pressure;Samples;Min_cycle;Max_cycle;Signal;HPM_P1;HPM_P2
2024/03/29 00:02:18;;;;;;;1.85;0.60;;;10.10;99.90;;;;;;4974804;28;20057;-86
2024/03/29 00:04:44;;;;;;;1.98;0.95;;;10.10;99.90;;;;;;4969882;28;20501;-86
2024/03/29 00:07:10;;;;;;;2.38;0.85;;;10.10;99.90;;;;;;4961484;28;20051;-86
2024/03/29 00:09:36;;;;;;;1.75;0.75;;;10.10;99.90;;;;;;4981725;28;20046;-86
2024/03/29 00:12:02;;;;;;;1.15;0.52;;;10.10;99.90;;;;;;4985743;28;20061;-85
2024/03/29 00:14:31;;;;;;;1.60;0.70;;;10.00;99.90;;;;;;4986970;28;20704;-86
2024/03/29 00:16:57;;;;;;;1.13;0.40;;;10.00;99.90;;;;;;4974082;28;20072;-86
2024/03/29 00:19:25;;;;;;;0.90;0.50;;;9.90;99.90;;;;;;4973556;28;20536;-86
2024/03/29 00:21:52;;;;;;;1.27;0.63;;;9.90;99.90;;;;;;4973174;28;20065;-87
2024/03/29 00:24:18;;;;;;;0.93;0.60;;;9.90;99.90;;;;;;4987205;28;20505;-86
2024/03/29 00:26:45;;;;;;;1.13;0.57;;;9.80;99.90;;;;;;4972047;28;20068;-86
2024/03/29 00:29:11;;;;;;;1.58;0.68;;;9.80;99.90;;;;;;4989711;28;20108;-86
2024/03/29 00:31:45;;;;;;;0.93;0.57;;;9.70;99.90;;;;;;4989651;28;20054;-87
2024/03/29 00:34:11;;;;;;;2.53;0.60;;;9.70;99.90;;;;;;5005264;28;20065;-85
2024/03/29 00:36:45;;;;;;;2.65;0.57;;;9.70;99.90;;;;;;4988852;28;20404;-85
2024/03/29 00:39:11;;;;;;;1.88;0.50;;;9.70;99.90;;;;;;4982413;28;20481;-87
2024/03/29 00:41:37;;;;;;;1.52;0.60;;;9.60;99.90;;;;;;4972392;28;20069;-85
2024/03/29 00:44:04;;;;;;;0.88;0.52;;;9.60;99.90;;;;;;4972898;28;20057;-85
2024/03/29 00:46:31;;;;;;;1.27;0.65;;;9.50;99.90;;;;;;4976851;28;20054;-87
2024/03/29 00:48:58;;;;;;;1.65;0.50;;;9.40;99.90;;;;;;4957409;28;20647;-86
2024/03/29 00:51:24;;;;;;;1.63;0.70;;;9.40;99.90;;;;;;4980072;28;20062;-86
2024/03/29 00:53:54;;;;;;;0.75;0.50;;;9.40;99.90;;;;;;4958835;28;20100;-86
2024/03/29 00:56:20;;;;;;;1.38;0.77;;;9.30;99.90;;;;;;4953368;28;20050;-87
2024/03/29 00:58:46;;;;;;;2.50;0.68;;;9.30;99.90;;;;;;4956458;28;20142;-86
2024/03/29 01:01:11;;;;;;;0.93;0.85;;;9.30;99.90;;;;;;4972400;28;20493;-86
2024/03/29 01:03:38;;;;;;;2.25;0.82;;;9.20;99.90;;;;;;4968348;28;20105;-86
2024/03/29 01:06:04;;;;;;;3.42;0.77;;;9.20;99.90;;;;;;4968314;28;20062;-86
2024/03/29 01:08:30;;;;;;;2.65;0.60;;;9.20;99.90;;;;;;4953891;28;20050;-86
2024/03/29 01:10:57;;;;;;;0.75;0.40;;;9.20;99.90;;;;;;4968383;28;20054;-85
2024/03/29 01:13:23;;;;;;;1.20;0.45;;;9.20;99.90;;;;;;4984338;28;20058;-86
2024/03/29 01:15:52;;;;;;;0.75;0.52;;;9.20;99.90;;;;;;4981624;28;20409;-86
2024/03/29 01:18:19;;;;;;;1.20;0.43;;;9.20;99.90;;;;;;4985982;28;20057;-85
2024/03/29 01:20:48;;;;;;;0.70;0.40;;;9.20;99.90;;;;;;4975446;28;20516;-87
2024/03/29 01:23:15;;;;;;;0.63;0.40;;;9.30;99.90;;;;;;4977075;28;20050;-86
2024/03/29 01:25:41;;;;;;;2.05;0.60;;;9.30;99.90;;;;;;4967709;28;20060;-87
2024/03/29 01:28:08;;;;;;;1.55;0.60;;;9.30;99.90;;;;;;4954614;28;20054;-86
2024/03/29 01:30:34;;;;;;;0.30;0.30;;;9.20;99.90;;;;;;4972932;28;20050;-86
2024/03/29 01:33:00;;;;;;;0.43;0.30;;;9.20;99.90;;;;;;4982861;28;20054;-86
2024/03/29 01:35:27;;;;;;;1.65;0.57;;;9.10;99.90;;;;;;4969634;28;20128;-86
2024/03/29 01:37:54;;;;;;;1.17;0.30;;;9.10;1.00;;;;;;4970867;28;20077;-86
2024/03/29 01:40:22;;;;;;;1.25;0.70;;;9.00;1.00;;;;;;4970721;28;20069;-86
2024/03/29 01:42:55;;;;;;;1.00;0.52;;;9.00;1.00;;;;;;4987908;28;20058;-86
2024/03/29 01:45:23;;;;;;;1.30;0.60;;;9.00;1.00;;;;;;4970821;28;20265;-85
2024/03/29 01:47:52;;;;;;;0.85;0.47;;;9.00;1.00;;;;;;5004154;28;20060;-87
2024/03/29 01:50:19;;;;;;;1.90;0.77;;;9.00;1.00;;;;;;4989607;28;20620;-86
2024/03/29 01:52:44;;;;;;;1.75;0.90;;;9.00;1.00;;;;;;4956598;28;20567;-86
2024/03/29 01:55:11;;;;;;;0.38;0.30;;;9.10;99.90;;;;;;4991112;28;20075;-86
2024/03/29 01:57:39;;;;;;;0.80;0.40;;;9.10;1.00;;;;;;4990270;28;20049;-87
2024/03/29 02:00:07;;;;;;;0.68;0.40;;;9.20;1.00;;;;;;4996583;28;20053;-86
2024/03/29 02:02:33;;;;;;;1.27;0.50;;;9.20;1.00;;;;;;5008133;28;20496;-87
2024/03/29 02:05:00;;;;;;;0.80;0.40;;;9.20;1.00;;;;;;4974806;28;20050;-86
2024/03/29 02:07:27;;;;;;;0.50;0.40;;;9.20;1.00;;;;;;4983596;28;20054;-86
2024/03/29 02:09:53;;;;;;;1.90;0.60;;;9.20;1.00;;;;;;4957309;28;20391;-86
2024/03/29 02:12:19;;;;;;;0.88;0.40;;;9.20;1.00;;;;;;5006697;28;20200;-85
2024/03/29 02:14:46;;;;;;;1.42;0.52;;;9.20;1.00;;;;;;4973441;28;20057;-86
2024/03/29 02:17:16;;;;;;;1.38;0.40;;;9.20;1.00;;;;;;4985111;28;20104;-85
2024/03/29 02:19:41;;;;;;;1.10;0.57;;;9.20;1.00;;;;;;4977014;28;20060;-85
2024/03/29 02:22:09;;;;;;;1.13;0.40;;;9.20;1.00;;;;;;4956937;28;20049;-86
2024/03/29 02:24:35;;;;;;;0.65;0.40;;;9.20;1.00;;;;;;4968382;28;20057;-86
2024/03/29 02:27:00;;;;;;;0.55;0.40;;;9.20;1.00;;;;;;4957902;28;20065;-86
2024/03/29 02:29:27;;;;;;;1.80;0.50;;;9.20;1.00;;;;;;4988521;28;20152;-86
2024/03/29 02:31:53;;;;;;;0.30;0.25;;;9.30;1.00;;;;;;4993900;28;20112;-86
2024/03/29 02:34:19;;;;;;;0.55;0.30;;;9.30;1.00;;;;;;4972955;28;20053;-86
2024/03/29 02:36:45;;;;;;;0.55;0.32;;;9.30;1.00;;;;;;4959354;28;20523;-86
2024/03/29 02:39:12;;;;;;;1.77;0.40;;;9.30;13.30;;;;;;4981189;28;20124;-85
2024/03/29 02:41:39;;;;;;;0.47;0.30;;;9.20;37.00;;;;;;4971675;28;20049;-86
2024/03/29 02:44:06;;;;;;;0.80;0.30;;;9.20;81.20;;;;;;5006971;28;20080;-86
2024/03/29 02:46:34;;;;;;;0.93;0.40;;;9.10;99.90;;;;;;5007641;28;20053;-85
2024/03/29 02:49:02;;;;;;;1.23;0.75;;;9.10;99.90;;;;;;4991333;28;20107;-86
2024/03/29 02:51:28;;;;;;;1.90;0.50;;;9.00;99.90;;;;;;5007025;28;20059;-86
2024/03/29 02:53:54;;;;;;;1.58;0.60;;;9.00;99.90;;;;;;5003175;28;20057;-86
2024/03/29 02:56:23;;;;;;;2.10;0.40;;;9.00;99.90;;;;;;5024942;28;20468;-86
2024/03/29 02:58:51;;;;;;;1.20;0.50;;;8.90;99.90;;;;;;4990353;28;20214;-86
2024/03/29 03:01:17;;;;;;;0.70;0.30;;;8.90;99.90;;;;;;4999198;28;20057;-86
2024/03/29 03:03:45;;;;;;;1.45;0.60;;;8.90;99.90;;;;;;4956661;28;20062;-85
2024/03/29 03:06:14;;;;;;;0.65;0.40;;;8.90;99.90;;;;;;4988379;28;20071;-85
2024/03/29 03:11:27;;;;;;;1.27;0.57;;;8.80;1.00;;;;;;4969850;28;20058;-85
2024/03/29 03:13:53;;;;;;;2.55;0.52;;;8.80;1.00;;;;;;5004362;28;20129;-86
2024/03/29 03:16:23;;;;;;;0.75;0.30;;;8.80;99.90;;;;;;4975970;28;20129;-86
2024/03/29 03:18:51;;;;;;;2.47;0.50;;;8.70;1.00;;;;;;4991471;28;20481;-86
2024/03/29 03:21:17;;;;;;;1.10;0.32;;;8.60;99.90;;;;;;4985821;28;20069;-86
2024/03/29 03:23:43;;;;;;;0.73;0.25;;;8.60;99.90;;;;;;4973850;28;20058;-85
2024/03/29 03:26:09;;;;;;;0.50;0.40;;;8.60;99.90;;;;;;4956348;28;20143;-86
2024/03/29 03:28:40;;;;;;;0.52;0.32;;;8.60;99.90;;;;;;4992609;28;20053;-88
2024/03/29 03:31:07;;;;;;;1.38;0.35;;;8.60;1.00;;;;;;4994014;28;20100;-86
2024/03/29 03:33:34;;;;;;;0.82;0.30;;;8.50;1.00;;;;;;4974453;28;20424;-87
2024/03/29 03:36:02;;;;;;;0.70;0.40;;;8.40;99.90;;;;;;4975844;28;20058;-92
2024/03/29 03:38:38;;;;;;;0.65;0.20;;;8.40;99.90;;;;;;4978735;28;20049;-92
2024/03/29 03:41:08;;;;;;;0.30;0.30;;;8.30;1.00;;;;;;4993367;28;20068;-92
2024/03/29 03:43:34;;;;;;;0.60;0.30;;;8.20;99.90;;;;;;4989517;28;20061;-90
2024/03/29 03:46:03;;;;;;;1.08;0.30;;;8.10;99.90;;;;;;4965103;28;20050;-89
2024/03/29 03:48:30;;;;;;;0.22;0.20;;;8.10;65.10;;;;;;4961902;28;20548;-91
2024/03/29 03:50:56;;;;;;;0.65;0.20;;;8.10;99.90;;;;;;4995379;28;20046;-91
2024/03/29 03:53:52;;;;;;;0.63;0.28;;;8.00;99.90;;;;;;4980351;28;20380;-90
2024/03/29 03:56:19;;;;;;;0.70;0.40;;;7.90;99.90;;;;;;4996133;28;20064;-90
2024/03/29 03:58:47;;;;;;;1.15;0.40;;;7.90;99.90;;;;;;4996207;28;20057;-87
2024/03/29 04:01:15;;;;;;;0.85;0.40;;;7.80;1.00;;;;;;4995882;28;20073;-88
2024/03/29 04:03:51;;;;;;;0.70;0.22;;;7.80;1.00;;;;;;4985668;28;20438;-89
2024/03/29 04:06:28;;;;;;;0.32;0.20;;;7.80;1.00;;;;;;4995787;28;20112;-89
2024/03/29 04:08:59;;;;;;;0.93;0.22;;;7.80;1.00;;;;;;4996661;28;20432;-90
2024/03/29 04:11:32;;;;;;;0.30;0.30;;;7.80;1.00;;;;;;4996903;28;20646;-91
2024/03/29 04:14:17;;;;;;;0.35;0.30;;;7.70;21.70;;;;;;4978949;28;20058;-91
2024/03/29 04:16:46;;;;;;;0.45;0.30;;;7.70;99.90;;;;;;4977191;28;20062;-92
2024/03/29 04:19:20;;;;;;;0.40;0.28;;;7.70;99.90;;;;;;4945140;28;20074;-91
2024/03/29 04:21:46;;;;;;;0.30;0.30;;;7.70;99.90;;;;;;4960799;28;20065;-91
2024/03/29 04:24:20;;;;;;;0.82;0.20;;;7.70;27.80;;;;;;4944755;28;20054;-91
2024/03/29 04:26:47;;;;;;;0.32;0.20;;;7.60;99.90;;;;;;4959841;28;20502;-89
2024/03/29 04:29:16;;;;;;;0.45;0.25;;;7.60;99.90;;;;;;4976100;28;20050;-90
2024/03/29 04:31:45;;;;;;;0.15;0.15;;;7.60;99.90;;;;;;4959919;28;20093;-90
2024/03/29 04:34:11;;;;;;;0.20;0.20;;;7.60;99.90;;;;;;5023907;28;20434;-90
2024/03/29 04:36:37;;;;;;;0.10;0.10;;;7.60;99.90;;;;;;4976579;28;20175;-89
2024/03/29 04:39:03;;;;;;;0.30;0.30;;;7.60;99.90;;;;;;4994363;28;20619;-89
2024/03/29 04:41:35;;;;;;;0.50;0.20;;;7.60;99.90;;;;;;4959010;28;20050;-88
2024/03/29 04:44:04;;;;;;;0.10;0.10;;;7.60;99.90;;;;;;4973966;28;20046;-87
2024/03/29 04:46:33;;;;;;;0.55;0.10;;;7.60;71.20;;;;;;4994469;28;20054;-88
2024/03/29 04:49:01;;;;;;;0.25;0.25;;;7.60;76.80;;;;;;4994162;28;20073;-89
2024/03/29 04:51:27;;;;;;;0.25;0.25;;;7.50;30.40;;;;;;4993171;28;20076;-88
2024/03/29 04:53:53;;;;;;;0.20;0.20;;;7.50;99.90;;;;;;4977638;28;20049;-88
2024/03/29 04:56:20;;;;;;;0.88;0.47;;;7.50;99.90;;;;;;5008876;28;20054;-88
2024/03/29 04:58:50;;;;;;;0.20;0.20;;;7.50;99.90;;;;;;4977605;28;20893;-88
2024/03/29 05:01:17;;;;;;;0.13;0.10;;;7.50;99.90;;;;;;4977087;28;20080;-88
2024/03/29 05:03:44;;;;;;;0.32;0.10;;;7.50;99.90;;;;;;4975807;28;20065;-88
2024/03/29 05:06:11;;;;;;;0.35;0.20;;;7.50;99.90;;;;;;4980844;28;20049;-87
2024/03/29 05:08:37;;;;;;;1.00;0.22;;;7.60;99.90;;;;;;4979098;28;20124;-87
2024/03/29 05:11:07;;;;;;;0.55;0.40;;;7.60;99.90;;;;;;4985133;28;20049;-88
2024/03/29 05:13:42;;;;;;;0.52;0.40;;;7.60;99.90;;;;;;4977750;28;20421;-89
2024/03/29 05:16:13;;;;;;;1.10;0.30;;;7.60;99.90;;;;;;4993869;28;20104;-87
2024/03/29 05:18:39;;;;;;;1.42;0.70;;;7.60;99.90;;;;;;5009962;28;20057;-88
2024/03/29 05:21:05;;;;;;;0.40;0.40;;;7.60;99.90;;;;;;4993449;28;20545;-88
2024/03/29 05:23:31;;;;;;;1.48;0.30;;;7.70;99.90;;;;;;4993218;28;20049;-88
2024/03/29 05:26:00;;;;;;;0.95;0.55;;;7.60;99.90;;;;;;4977529;28;20164;-88
2024/03/29 05:28:27;;;;;;;1.30;0.57;;;7.60;99.90;;;;;;4976974;28;20068;-87
2024/03/29 05:30:52;;;;;;;1.55;0.40;;;7.60;99.90;;;;;;4993316;28;20077;-88
2024/03/29 05:33:23;;;;;;;0.65;0.38;;;7.70;99.90;;;;;;4987348;28;20049;-88
2024/03/29 05:35:49;;;;;;;0.65;0.38;;;7.70;99.90;;;;;;4984762;28;20126;-87
2024/03/29 05:38:39;;;;;;;0.60;0.30;;;7.80;99.90;;;;;;4975739;28;20054;-87
2024/03/29 05:41:12;;;;;;;1.38;0.45;;;7.80;99.90;;;;;;4989744;28;20050;-87
2024/03/29 05:43:44;;;;;;;1.40;0.35;;;7.80;42.60;;;;;;4973499;28;20057;-88
2024/03/29 05:46:15;;;;;;;1.10;0.50;;;7.90;15.20;;;;;;4962899;28;20076;-87
2024/03/29 05:48:43;;;;;;;0.47;0.30;;;7.90;1.00;;;;;;4971529;28;20074;-87
2024/03/29 05:51:08;;;;;;;0.80;0.30;;;8.00;1.00;;;;;;4972597;28;20559;-87
2024/03/29 05:53:36;;;;;;;0.57;0.40;;;8.00;1.00;;;;;;4947189;28;20113;-88
2024/03/29 05:56:02;;;;;;;0.88;0.40;;;8.00;99.90;;;;;;4938042;28;20062;-87
2024/03/29 05:58:29;;;;;;;1.50;0.50;;;8.00;99.90;;;;;;4949242;28;20042;-86
2024/03/29 06:00:58;;;;;;;0.57;0.30;;;8.00;99.90;;;;;;4979484;28;20050;-86
2024/03/29 06:03:26;;;;;;;1.38;0.40;;;8.00;99.90;;;;;;4992902;28;20053;-86
2024/03/29 06:05:51;;;;;;;0.90;0.50;;;8.00;35.70;;;;;;4961105;28;20061;-86
2024/03/29 06:08:25;;;;;;;1.85;0.65;;;8.10;99.90;;;;;;4984034;28;20058;-86
2024/03/29 06:10:53;;;;;;;0.68;0.38;;;8.10;99.90;;;;;;4967014;28;20051;-85
2024/03/29 06:17:22;;;;;;;1.90;0.40;;;8.20;1.00;;;;;;4977583;28;20046;-86
2024/03/29 06:19:07;;;;;;;0.60;0.20;;;8.20;99.90;;;;;;4975339;28;20077;-86
2024/03/29 06:21:40;;;;;;;1.23;0.38;;;8.30;99.90;;;;;;4964339;28;20053;-87
2024/03/29 06:24:07;;;;;;;0.50;0.28;;;8.30;99.90;;;;;;4993794;28;20061;-83
2024/03/29 06:26:34;;;;;;;0.70;0.38;;;8.30;99.90;;;;;;4932937;28;20065;-83
2024/03/29 06:29:01;;;;;;;1.13;0.40;;;8.40;99.90;;;;;;4964928;28;20057;-83
2024/03/29 06:31:27;;;;;;;0.50;0.40;;;8.40;6.30;;;;;;4949291;28;20062;-83
2024/03/29 06:33:53;;;;;;;1.20;0.40;;;8.40;1.00;;;;;;4964160;28;20112;-83
2024/03/29 06:36:19;;;;;;;0.98;0.40;;;8.50;1.00;;;;;;4943299;28;20140;-84
2024/03/29 06:38:46;;;;;;;0.77;0.45;;;8.50;1.00;;;;;;4953899;28;20133;-84
2024/03/29 06:41:12;;;;;;;0.43;0.30;;;8.50;1.00;;;;;;4947467;28;20065;-83
2024/03/29 06:43:41;;;;;;;0.90;0.43;;;8.60;1.00;;;;;;4932897;28;20724;-83
2024/03/29 06:46:09;;;;;;;0.52;0.20;;;8.60;99.90;;;;;;4931832;28;20049;-83
2024/03/29 06:48:34;;;;;;;0.88;0.50;;;8.60;42.60;;;;;;4958953;28;20081;-83
2024/03/29 06:51:00;;;;;;;0.57;0.30;;;8.70;1.00;;;;;;4978842;28;20121;-83
2024/03/29 06:53:26;;;;;;;0.82;0.40;;;8.70;1.00;;;;;;4958933;28;20049;-82
2024/03/29 06:55:54;;;;;;;1.15;0.60;;;8.70;1.00;;;;;;4980570;28;20057;-84
2024/03/29 06:58:19;;;;;;;1.38;0.50;;;8.70;99.90;;;;;;4964693;28;20054;-83
2024/03/29 07:00:47;;;;;;;0.82;0.60;;;8.70;99.90;;;;;;4963543;28;20618;-84
2024/03/29 07:03:13;;;;;;;1.65;0.68;;;8.70;99.90;;;;;;4962932;28;20049;-85
2024/03/29 07:05:40;;;;;;;0.90;0.50;;;8.70;99.90;;;;;;4990495;28;20473;-83
2024/03/29 07:08:06;;;;;;;1.10;0.60;;;8.70;99.90;;;;;;4959121;28;20452;-83
2024/03/29 07:10:32;;;;;;;0.22;0.20;;;8.70;99.90;;;;;;4958309;28;20137;-83
2024/03/29 07:12:58;;;;;;;0.45;0.30;;;8.80;99.90;;;;;;4954850;28;20046;-83
2024/03/29 07:15:24;;;;;;;1.55;0.40;;;8.90;99.90;;;;;;4971780;28;20051;-82
2024/03/29 07:17:50;;;;;;;1.08;0.50;;;9.00;99.90;;;;;;4960934;28;20049;-84
2024/03/29 07:20:16;;;;;;;0.52;0.40;;;9.00;1.00;;;;;;4959584;28;20054;-82
2024/03/29 07:22:42;;;;;;;1.70;0.60;;;9.10;1.00;;;;;;4943288;28;20065;-83
2024/03/29 07:25:08;;;;;;;1.27;0.50;;;9.10;99.90;;;;;;4969231;28;20125;-82
2024/03/29 07:27:35;;;;;;;1.80;0.50;;;9.10;99.90;;;;;;4979665;28;20073;-83
2024/03/29 07:30:05;;;;;;;1.60;0.45;;;9.10;99.90;;;;;;4964086;28;20045;-83
2024/03/29 07:32:31;;;;;;;0.77;0.40;;;9.10;99.90;;;;;;4978052;28;20129;-83
2024/03/29 07:34:59;;;;;;;2.08;0.70;;;9.10;99.90;;;;;;4984800;28;20054;-84
2024/03/29 07:37:26;;;;;;;0.73;0.50;;;9.10;99.90;;;;;;4982438;28;20133;-85
2024/03/29 07:39:52;;;;;;;1.30;0.40;;;9.10;99.90;;;;;;4980660;28;20834;-86
2024/03/29 07:42:18;;;;;;;1.30;0.50;;;9.10;99.90;;;;;;4968056;28;20050;-84
2024/03/29 07:44:45;;;;;;;0.77;0.60;;;9.20;99.90;;;;;;4987235;28;20046;-86
2024/03/29 07:47:14;;;;;;;1.10;0.40;;;9.20;99.90;;;;;;4997360;28;20433;-85
2024/03/29 07:49:40;;;;;;;1.02;0.47;;;9.30;99.90;;;;;;4958328;28;20050;-84
2024/03/29 07:52:08;;;;;;;1.05;0.73;;;9.40;96.90;;;;;;4963858;28;20054;-83
2024/03/29 07:54:34;;;;;;;0.30;0.25;;;9.50;1.00;;;;;;4969489;28;20053;-83
2024/03/29 07:57:01;;;;;;;0.85;0.50;;;9.60;1.00;;;;;;4985889;28;20054;-83
2024/03/29 07:59:27;;;;;;;0.85;0.47;;;9.60;1.00;;;;;;4977386;28;20390;-83
2024/03/29 08:01:54;;;;;;;2.08;0.60;;;9.70;1.00;;;;;;4981347;28;20201;-83
2024/03/29 08:04:20;;;;;;;1.63;0.80;;;9.90;99.90;;;;;;4970645;28;20046;-83
2024/03/29 08:06:46;;;;;;;1.50;0.65;;;10.00;99.90;;;;;;4981605;28;20057;-81
2024/03/29 08:09:15;;;;;;;1.38;0.57;;;10.00;99.90;;;;;;4984220;28;20054;-89
2024/03/29 08:11:42;;;;;;;0.93;0.82;;;10.00;99.90;;;;;;4976022;28;20057;-87
2024/03/29 08:14:08;;;;;;;1.48;0.30;;;10.10;99.90;;;;;;4976699;28;20389;-82
2024/03/29 08:16:34;;;;;;;0.93;0.40;;;10.10;99.90;;;;;;4971212;28;20120;-85
2024/03/29 08:19:00;;;;;;;1.17;0.70;;;10.20;99.90;;;;;;4979496;28;20065;-85
2024/03/29 08:21:27;;;;;;;0.98;0.50;;;10.20;99.90;;;;;;4972359;28;20130;-85
2024/03/29 08:23:55;;;;;;;0.47;0.32;;;10.20;99.90;;;;;;5005284;28;20065;-85
2024/03/29 08:26:23;;;;;;;1.58;0.52;;;10.30;99.90;;;;;;4972652;28;20084;-86
2024/03/29 08:28:48;;;;;;;0.40;0.30;;;10.40;99.90;;;;;;4970444;28;20046;-86
2024/03/29 08:31:16;;;;;;;0.75;0.50;;;10.40;99.90;;;;;;4961971;28;20666;-86
2024/03/29 08:33:43;;;;;;;0.75;0.47;;;10.50;99.90;;;;;;4982520;28;20046;-84
2024/03/29 08:36:10;;;;;;;1.50;0.50;;;10.70;99.90;;;;;;4976968;28;20113;-83
2024/03/29 08:38:44;;;;;;;1.70;0.57;;;10.80;99.90;;;;;;4973022;28;20443;-86
2024/03/29 08:41:10;;;;;;;1.13;0.50;;;10.80;99.90;;;;;;4956427;28;20108;-82
2024/03/29 08:43:36;;;;;;;1.08;0.52;;;10.70;99.90;;;;;;4952680;28;20452;-81
2024/03/29 08:46:01;;;;;;;0.57;0.20;;;10.70;99.90;;;;;;4966197;28;20587;-82
2024/03/29 08:48:29;;;;;;;1.33;0.55;;;10.80;99.90;;;;;;4990022;28;20058;-90
2024/03/29 08:50:55;;;;;;;0.85;0.35;;;10.70;99.90;;;;;;4960804;28;20058;-82
2024/03/29 08:53:21;;;;;;;0.93;0.40;;;10.80;99.90;;;;;;4994681;28;20112;-79
2024/03/29 08:55:50;;;;;;;0.95;0.38;;;10.80;99.90;;;;;;4977282;28;20157;-79
2024/03/29 08:58:16;;;;;;;0.90;0.50;;;10.80;99.90;;;;;;4974102;28;20053;-79
2024/03/29 09:00:42;;;;;;;1.58;0.30;;;10.90;99.90;;;;;;4994634;28;20045;-79
2024/03/29 09:03:08;;;;;;;0.63;0.43;;;10.90;99.90;;;;;;4964064;28;20053;-80
2024/03/29 09:05:34;;;;;;;1.13;0.60;;;11.00;99.90;;;;;;4967354;28;20117;-79
2024/03/29 09:08:00;;;;;;;1.20;0.47;;;11.20;99.90;;;;;;4957074;28;20050;-79
2024/03/29 09:10:29;;;;;;;2.00;0.70;;;11.40;99.90;;;;;;4976949;28;20360;-81
2024/03/29 09:12:55;;;;;;;0.80;0.50;;;11.50;99.90;;;;;;4947214;28;20371;-79
2024/03/29 09:15:20;;;;;;;0.68;0.45;;;11.30;99.90;;;;;;4964936;28;20654;-79
2024/03/29 09:17:46;;;;;;;1.05;0.40;;;11.20;99.90;;;;;;4956343;28;20049;-80
2024/03/29 09:20:15;;;;;;;1.08;0.50;;;11.20;99.90;;;;;;4991837;28;20484;-80
2024/03/29 09:22:41;;;;;;;1.25;0.40;;;11.10;99.90;;;;;;4949898;28;20062;-79
2024/03/29 09:25:10;;;;;;;0.30;0.30;;;11.20;99.90;;;;;;4966233;28;20045;-81
2024/03/29 09:27:36;;;;;;;0.90;0.30;;;11.20;99.90;;;;;;4976701;28;20053;-79
2024/03/29 09:30:05;;;;;;;0.22;0.22;;;11.20;99.90;;;;;;4962434;28;20375;-80
2024/03/29 09:32:31;;;;;;;0.25;0.20;;;11.10;99.90;;;;;;4964639;28;20061;-79
2024/03/29 09:34:57;;;;;;;0.55;0.30;;;11.10;99.90;;;;;;5001275;28;20057;-78
2024/03/29 09:37:23;;;;;;;0.30;0.30;;;11.10;99.90;;;;;;4976891;28;20471;-79
2024/03/29 09:39:50;;;;;;;0.40;0.30;;;11.20;99.90;;;;;;4972921;28;20059;-79
2024/03/29 09:42:17;;;;;;;1.38;0.60;;;11.20;99.90;;;;;;4972953;28;20592;-79
2024/03/29 09:44:44;;;;;;;0.40;0.40;;;11.20;99.90;;;;;;4982560;28;20061;-78
2024/03/29 09:47:11;;;;;;;0.47;0.30;;;11.10;99.90;;;;;;4977533;28;20046;-79
2024/03/29 09:49:37;;;;;;;0.30;0.30;;;11.20;99.90;;;;;;4966748;28;20080;-79
2024/03/29 09:52:03;;;;;;;0.38;0.35;;;11.30;99.90;;;;;;4979618;28;20062;-80
2024/03/29 09:54:29;;;;;;;1.38;0.40;;;11.30;99.90;;;;;;5004771;28;20054;-79
2024/03/29 09:56:58;;;;;;;0.20;0.20;;;11.30;99.90;;;;;;4980074;28;20053;-79
2024/03/29 09:59:26;;;;;;;0.73;0.32;;;11.50;99.90;;;;;;4985930;28;20065;-79
2024/03/29 10:01:53;;;;;;;0.30;0.30;;;11.60;99.90;;;;;;4972632;28;20046;-78
2024/03/29 10:04:20;;;;;;;0.95;0.30;;;11.90;99.90;;;;;;4975536;28;20520;-79
2024/03/29 10:06:49;;;;;;;0.55;0.30;;;12.00;99.90;;;;;;4975617;28;20054;-79
2024/03/29 10:09:17;;;;;;;1.98;0.40;;;12.00;99.90;;;;;;4975311;28;20109;-84
2024/03/29 10:11:47;;;;;;;0.20;0.20;;;12.10;99.90;;;;;;4970627;28;20402;-85
2024/03/29 10:14:13;;;;;;;0.30;0.30;;;12.20;99.90;;;;;;4953165;28;20481;-83
2024/03/29 10:16:41;;;;;;;1.10;0.57;;;12.20;99.90;;;;;;4967715;28;20053;-89
2024/03/29 10:19:07;;;;;;;0.30;0.28;;;12.20;99.90;;;;;;4983359;28;20046;-87
2024/03/29 10:21:36;;;;;;;0.38;0.30;;;12.30;99.90;;;;;;4964877;28;20050;-87
2024/03/29 10:24:17;;;;;;;0.80;0.40;;;12.20;99.90;;;;;;4949793;28;20057;-88
2024/03/29 10:26:43;;;;;;;0.70;0.40;;;12.20;99.90;;;;;;4963718;28;20542;-86
2024/03/29 10:29:11;;;;;;;1.13;0.50;;;12.30;99.90;;;;;;4979653;28;20076;-89
2024/03/29 10:31:40;;;;;;;1.80;0.70;;;12.40;99.90;;;;;;4971660;28;20068;-89
2024/03/29 10:34:08;;;;;;;2.00;1.00;;;12.60;99.90;;;;;;4968886;28;20061;-88
2024/03/29 10:36:42;;;;;;;1.90;0.70;;;12.60;99.90;;;;;;4981781;28;20130;-89
2024/03/29 10:39:11;;;;;;;0.82;0.73;;;12.60;99.90;;;;;;5005739;28;20054;-90
2024/03/29 10:41:40;;;;;;;0.82;0.50;;;12.80;99.90;;;;;;4958504;28;20045;-81
2024/03/29 10:44:12;;;;;;;0.77;0.50;;;13.00;99.90;;;;;;5000194;28;20053;-82
2024/03/29 10:46:39;;;;;;;0.57;0.40;;;13.00;99.90;;;;;;4967229;28;20706;-82
2024/03/29 10:49:07;;;;;;;0.77;0.50;;;13.00;99.90;;;;;;4979264;28;20092;-80
2024/03/29 10:51:33;;;;;;;1.42;0.60;;;13.00;99.90;;;;;;4995031;28;20050;-80
2024/03/29 10:54:01;;;;;;;1.38;0.60;;;13.10;99.90;;;;;;4978520;28;20050;-81
2024/03/29 10:56:26;;;;;;;3.22;0.80;;;13.30;99.90;;;;;;4993453;28;20066;-81
2024/03/29 10:58:54;;;;;;;1.45;0.63;;;13.40;99.90;;;;;;4983606;28;20422;-82
2024/03/29 11:01:20;;;;;;;1.23;0.50;;;13.40;99.90;;;;;;4964927;28;20076;-81
2024/03/29 11:03:53;;;;;;;1.48;0.65;;;13.50;99.90;;;;;;4992682;28;20065;-82
2024/03/29 11:06:21;;;;;;;1.23;0.68;;;13.40;99.90;;;;;;4973120;28;20501;-81
2024/03/29 11:08:48;;;;;;;2.20;0.77;;;13.50;99.90;;;;;;4961492;28;20065;-82
2024/03/29 11:11:14;;;;;;;1.90;0.70;;;13.50;99.90;;;;;;4977035;28;20324;-82
2024/03/29 11:13:47;;;;;;;1.33;0.77;;;13.60;99.90;;;;;;4963652;28;20543;-82
2024/03/29 11:16:18;;;;;;;1.63;1.02;;;13.40;99.90;;;;;;4979471;28;20065;-82
2024/03/29 11:18:46;;;;;;;1.50;0.60;;;13.20;99.90;;;;;;4948255;28;20418;-82
2024/03/29 11:21:18;;;;;;;1.25;0.60;;;13.00;99.90;;;;;;4980775;28;20521;-82
2024/03/29 11:23:53;;;;;;;1.58;0.70;;;13.10;99.90;;;;;;4975266;28;20058;-83
2024/03/29 11:26:19;;;;;;;1.63;0.60;;;13.30;99.90;;;;;;4978410;28;20464;-83
2024/03/29 11:28:52;;;;;;;2.35;0.82;;;13.50;99.90;;;;;;4981493;28;20054;-82
2024/03/29 11:31:21;;;;;;;1.60;0.70;;;13.50;99.90;;;;;;4964220;28;20049;-82
2024/03/29 11:33:48;;;;;;;1.73;0.60;;;13.40;99.90;;;;;;4966803;28;20054;-82
2024/03/29 11:36:17;;;;;;;1.83;0.88;;;13.40;99.90;;;;;;4979121;28;20566;-81
2024/03/29 11:38:44;;;;;;;1.85;0.55;;;13.30;99.90;;;;;;4992946;28;20061;-81
2024/03/29 11:41:14;;;;;;;2.80;0.93;;;13.30;99.90;;;;;;5006163;28;20073;-81
2024/03/29 11:43:41;;;;;;;1.70;0.60;;;13.40;99.90;;;;;;4995922;28;20050;-80
2024/03/29 11:46:09;;;;;;;1.02;0.47;;;13.40;99.90;;;;;;4982826;28;20060;-82
2024/03/29 11:48:35;;;;;;;1.73;0.73;;;13.50;99.90;;;;;;4982291;28;20058;-81
2024/03/29 11:51:02;;;;;;;0.75;0.57;;;13.80;99.90;;;;;;4984263;28;20119;-81
2024/03/29 11:53:29;;;;;;;1.33;0.60;;;14.10;99.90;;;;;;4983358;28;20041;-81
2024/03/29 11:55:58;;;;;;;1.35;0.73;;;14.30;99.90;;;;;;4978717;28;20054;-86
2024/03/29 11:58:27;;;;;;;1.23;0.73;;;14.40;99.90;;;;;;4986665;28;20062;-85
2024/03/29 12:00:59;;;;;;;0.63;0.40;;;14.40;99.90;;;;;;4987553;28;20133;-86
2024/03/29 12:03:27;;;;;;;1.10;0.50;;;14.60;99.90;;;;;;4971736;28;20057;-85
2024/03/29 12:05:55;;;;;;;0.40;0.40;;;14.50;99.90;;;;;;4949983;28;20978;-86
2024/03/29 12:08:23;;;;;;;2.03;0.60;;;14.30;99.90;;;;;;4964581;28;20058;-89
2024/03/29 12:10:50;;;;;;;1.40;0.60;;;14.10;99.90;;;;;;4973371;28;20057;-87
2024/03/29 12:13:17;;;;;;;0.85;0.52;;;14.00;99.90;;;;;;4955435;28;20069;-85
2024/03/29 12:15:44;;;;;;;0.70;0.50;;;13.90;99.90;;;;;;5002866;28;20057;-85
2024/03/29 12:18:11;;;;;;;0.77;0.52;;;14.00;99.90;;;;;;4956008;28;20045;-85
2024/03/29 12:20:40;;;;;;;2.25;1.10;;;14.40;99.90;;;;;;4959912;28;20045;-86
2024/03/29 12:23:08;;;;;;;1.98;0.60;;;14.40;99.90;;;;;;4975355;28;20053;-87
2024/03/29 12:25:35;;;;;;;0.70;0.45;;;14.40;99.90;;;;;;4955743;28;20050;-82
2024/03/29 12:28:01;;;;;;;0.88;0.40;;;14.40;99.90;;;;;;4968887;28;20053;-85
2024/03/29 12:30:27;;;;;;;2.05;0.60;;;14.40;99.90;;;;;;4965368;28;20602;-86
2024/03/29 12:33:11;;;;;;;1.50;0.70;;;14.30;99.90;;;;;;4961622;28;20042;-85
2024/03/29 12:35:37;;;;;;;0.57;0.50;;;14.30;99.90;;;;;;4978976;28;20633;-85
2024/03/29 12:38:11;;;;;;;1.10;0.60;;;14.60;99.00;;;;;;4967519;28;20381;-86
2024/03/29 12:40:39;;;;;;;0.93;0.60;;;15.20;99.90;;;;;;4959280;28;20070;-86
2024/03/29 12:43:08;;;;;;;0.50;0.47;;;15.80;99.90;;;;;;4978545;28;20058;-86
2024/03/29 12:45:39;;;;;;;1.08;0.50;;;16.20;99.90;;;;;;4983136;28;20065;-85
2024/03/29 12:48:14;;;;;;;1.08;0.52;;;16.20;99.90;;;;;;4964760;28;20450;-88
2024/03/29 12:50:41;;;;;;;1.17;0.52;;;16.00;99.70;;;;;;4985560;28;20050;-87
2024/03/29 12:53:08;;;;;;;1.50;0.70;;;15.70;99.90;;;;;;4974556;28;20054;-87
2024/03/29 12:55:39;;;;;;;1.92;0.85;;;15.40;99.90;;;;;;4969336;28;20058;-88
2024/03/29 12:58:07;;;;;;;1.10;0.60;;;15.10;99.90;;;;;;4958436;28;20128;-87
2024/03/29 13:00:34;;;;;;;0.95;0.50;;;15.10;99.90;;;;;;4956445;28;20115;-87
2024/03/29 13:03:00;;;;;;;0.70;0.40;;;15.70;99.90;;;;;;4973390;28;20452;-86
2024/03/29 13:05:34;;;;;;;1.17;0.73;;;16.10;99.90;;;;;;4963404;28;20054;-88